createdAt,value
2017-12-02T00:00:44.734Z,134.20
2017-12-02T00:03:12.175Z,123.62
2017-12-02T00:05:39.586Z,118.30
2017-12-02T00:08:07.023Z,139.20
2017-12-02T00:10:34.469Z,121.37
2017-12-02T00:13:01.891Z,125.10
2017-12-02T00:15:29.314Z,146.20
2017-12-02T00:17:56.746Z,132.63
2017-12-02T00:20:24.175Z,142.45
2017-12-02T00:22:51.602Z,152.27
2017-12-02T00:25:19.038Z,148.60
2017-12-02T00:27:46.473Z,138.93
2017-12-02T00:30:13.893Z,138.40
2017-12-02T00:32:41.330Z,130.05
2017-12-02T00:35:08.754Z,137.62
2017-12-02T00:37:36.178Z,123.47
2017-12-02T00:40:03.615Z,144.65
2017-12-02T00:42:31.043Z,137.48
2017-12-02T00:44:58.484Z,139.90
2017-12-02T00:47:25.946Z,146.98
2017-12-02T00:49:53.372Z,140.40
2017-12-02T00:52:20.791Z,145.38
2017-12-02T00:54:48.231Z,148.68
2017-12-02T00:57:15.675Z,160.50
2017-12-02T00:59:43.100Z,149.90
2017-12-02T01:02:10.525Z,152.80
2017-12-02T01:04:37.963Z,152.90
2017-12-02T01:07:05.402Z,152.80
2017-12-02T01:09:32.842Z,158.73
2017-12-02T01:12:00.259Z,167.60
2017-12-02T01:14:27.699Z,176.57
2017-12-02T01:16:55.115Z,152.93
2017-12-02T01:19:22.556Z,175.00
2017-12-02T01:21:49.982Z,159.85
2017-12-02T01:24:17.406Z,179.23
2017-12-02T01:26:44.843Z,156.63
2017-12-02T01:29:12.275Z,166.05
2017-12-02T01:31:39.700Z,173.90
2017-12-02T01:34:07.140Z,164.27
2017-12-02T01:36:34.568Z,168.73
2017-12-02T01:39:02.003Z,164.07
2017-12-02T01:41:29.438Z,160.60
2017-12-02T01:43:56.869Z,172.10
2017-12-02T01:46:24.304Z,170.85
2017-12-02T01:48:51.728Z,168.82
2017-12-02T01:51:19.159Z,181.05
2017-12-02T01:53:46.602Z,179.57
2017-12-02T01:56:14.035Z,169.85
2017-12-02T01:58:41.466Z,170.38
2017-12-02T02:01:08.892Z,164.85
2017-12-02T02:03:36.330Z,181.70
2017-12-02T02:06:03.760Z,188.55
2017-12-02T02:08:31.181Z,160.35
2017-12-02T02:10:58.619Z,164.18
2017-12-02T02:13:26.043Z,185.75
2017-12-02T02:15:53.462Z,165.82
2017-12-02T02:18:20.899Z,166.55
2017-12-02T02:20:48.327Z,181.60
2017-12-02T02:23:16.759Z,189.95
2017-12-02T02:25:44.208Z,192.23
2017-12-02T02:28:11.636Z,178.52
2017-12-02T02:30:39.070Z,183.77
2017-12-02T02:33:06.502Z,190.88
2017-12-02T02:35:33.932Z,173.75
2017-12-02T02:38:01.370Z,184.10
2017-12-02T02:40:28.799Z,187.37
2017-12-02T02:42:56.224Z,193.87
2017-12-02T02:45:23.658Z,185.27
2017-12-02T02:47:51.091Z,189.87
2017-12-02T02:50:18.525Z,188.62
2017-12-02T02:52:45.958Z,174.90
2017-12-02T02:55:13.386Z,183.50
2017-12-02T02:57:40.819Z,187.35
2017-12-02T03:00:08.248Z,182.10
2017-12-02T03:02:35.667Z,173.45
2017-12-02T03:05:03.110Z,191.23
2017-12-02T03:07:30.536Z,179.80
2017-12-02T03:09:57.966Z,179.07
2017-12-02T03:12:25.407Z,173.82
2017-12-02T03:14:52.837Z,158.43
2017-12-02T03:17:20.280Z,166.35
2017-12-02T03:19:47.711Z,171.05
2017-12-02T03:22:15.146Z,183.35
2017-12-02T03:24:42.575Z,183.65
2017-12-02T03:27:10.004Z,175.68
2017-12-02T03:29:37.443Z,178.95
2017-12-02T03:32:04.863Z,165.93
2017-12-02T03:34:32.286Z,167.15
2017-12-02T03:36:59.732Z,184.63
2017-12-02T03:39:27.158Z,197.90
2017-12-02T03:41:54.587Z,187.10
2017-12-02T03:44:22.034Z,172.55
2017-12-02T03:46:49.463Z,178.70
2017-12-02T03:49:16.891Z,184.98
2017-12-02T03:51:44.335Z,181.68
2017-12-02T03:54:11.768Z,199.18
2017-12-02T03:56:39.187Z,187.60
2017-12-02T03:59:06.619Z,205.27
2017-12-02T04:01:34.039Z,197.75
2017-12-02T04:04:01.480Z,182.80
2017-12-02T04:06:28.902Z,188.65
2017-12-02T04:08:56.331Z,186.75
2017-12-02T04:11:23.763Z,186.23
2017-12-02T04:13:51.190Z,195.62
2017-12-02T04:16:18.614Z,203.50
2017-12-02T04:18:46.059Z,202.32
2017-12-02T04:21:13.502Z,197.25
2017-12-02T04:23:40.935Z,204.32
2017-12-02T04:26:08.359Z,185.27
2017-12-02T04:28:35.849Z,202.23
2017-12-02T04:31:03.233Z,198.87
2017-12-02T04:33:30.657Z,220.90
2017-12-02T04:35:58.086Z,210.18
2017-12-02T04:38:25.532Z,211.35
2017-12-02T04:40:52.964Z,201.68
2017-12-02T04:43:20.387Z,194.52
2017-12-02T04:45:47.818Z,196.73
2017-12-02T04:48:15.244Z,210.55
2017-12-02T04:50:42.683Z,190.50
2017-12-02T04:53:10.131Z,195.23
2017-12-02T04:55:37.543Z,194.27
2017-12-02T04:58:04.983Z,193.87
2017-12-02T05:00:32.418Z,198.07
2017-12-02T05:02:59.838Z,189.87
2017-12-02T05:05:27.270Z,189.50
2017-12-02T05:07:54.706Z,184.05
2017-12-02T05:10:22.135Z,184.82
2017-12-02T05:12:49.554Z,177.52
2017-12-02T05:15:16.992Z,198.25
2017-12-02T05:17:44.417Z,197.50
2017-12-02T05:20:11.865Z,266.67
2017-12-02T05:22:39.282Z,207.00
2017-12-02T05:25:06.707Z,205.15
2017-12-02T05:27:34.147Z,212.00
2017-12-02T05:30:01.575Z,216.38
2017-12-02T05:32:29.005Z,193.93
2017-12-02T05:34:56.438Z,192.65
2017-12-02T05:37:23.859Z,201.32
2017-12-02T05:39:51.278Z,191.23
2017-12-02T05:42:18.711Z,171.30
2017-12-02T05:44:46.147Z,211.32
2017-12-02T05:47:13.567Z,193.32
2017-12-02T05:49:40.985Z,189.37
2017-12-02T05:52:08.422Z,192.25
2017-12-02T05:54:35.842Z,194.77
2017-12-02T05:57:03.276Z,175.93
2017-12-02T05:59:30.713Z,160.98
2017-12-02T06:01:58.151Z,179.63
2017-12-02T06:04:25.583Z,169.43
2017-12-02T06:06:53.003Z,164.93
2017-12-02T06:09:20.466Z,169.40
2017-12-02T06:11:47.894Z,182.68
2017-12-02T06:14:15.326Z,196.02
2017-12-02T06:16:42.759Z,176.48
2017-12-02T06:19:10.202Z,171.25
2017-12-02T06:21:37.627Z,184.18
2017-12-02T06:24:05.051Z,170.20
2017-12-02T06:26:32.491Z,150.55
2017-12-02T06:28:59.911Z,147.68
2017-12-02T06:31:27.355Z,150.57
2017-12-02T06:33:54.774Z,136.55
2017-12-02T06:36:22.198Z,146.13
2017-12-02T06:38:49.639Z,142.90
2017-12-02T06:41:17.053Z,134.45
2017-12-02T06:43:44.498Z,135.35
2017-12-02T06:46:11.931Z,133.98
2017-12-02T06:48:39.359Z,144.80
2017-12-02T06:51:06.790Z,141.50
2017-12-02T06:53:34.210Z,143.35
2017-12-02T06:56:01.643Z,131.32
2017-12-02T06:58:29.058Z,128.82
2017-12-02T07:00:56.494Z,133.95
2017-12-02T07:03:23.919Z,135.48
2017-12-02T07:05:51.341Z,140.37
2017-12-02T07:08:18.783Z,124.57
2017-12-02T07:10:46.197Z,120.18
2017-12-02T07:13:13.627Z,126.55
2017-12-02T07:15:41.066Z,122.65
2017-12-02T07:18:08.495Z,134.05
2017-12-02T07:20:35.923Z,129.12
2017-12-02T07:23:03.369Z,123.68
2017-12-02T07:25:30.791Z,133.95
2017-12-02T07:27:58.219Z,119.18
2017-12-02T07:30:25.655Z,124.20
2017-12-02T07:32:53.066Z,113.72
2017-12-02T07:35:20.510Z,122.37
2017-12-02T07:37:47.963Z,126.57
2017-12-02T07:40:15.386Z,114.10
2017-12-02T07:42:42.798Z,112.78
2017-12-02T07:45:10.231Z,118.25
2017-12-02T07:47:37.666Z,125.40
2017-12-02T07:50:05.087Z,113.43
2017-12-02T07:52:32.526Z,117.03
2017-12-02T07:54:59.948Z,111.85
2017-12-02T07:57:27.362Z,113.18
2017-12-02T07:59:54.797Z,110.50
2017-12-02T08:02:22.222Z,121.55
2017-12-02T08:04:49.644Z,102.60
2017-12-02T08:07:17.070Z,92.85
2017-12-02T08:09:44.509Z,102.95
2017-12-02T08:12:11.926Z,105.53
2017-12-02T08:14:39.360Z,99.10
2017-12-02T08:17:06.772Z,93.53
2017-12-02T08:19:34.195Z,92.05
2017-12-02T08:22:01.577Z,83.18
2017-12-02T08:24:29.030Z,79.15
2017-12-02T08:26:56.455Z,88.00
2017-12-02T08:29:23.871Z,98.55
2017-12-02T08:31:51.291Z,94.32
2017-12-02T08:34:18.711Z,85.93
2017-12-02T08:36:46.127Z,88.22
2017-12-02T08:39:13.555Z,90.43
2017-12-02T08:41:40.975Z,103.30
2017-12-02T08:44:08.394Z,87.45
2017-12-02T08:46:35.815Z,90.65
2017-12-02T08:49:03.243Z,85.95
2017-12-02T08:51:30.659Z,91.12
2017-12-02T08:53:58.078Z,85.28
2017-12-02T08:56:25.635Z,86.07
2017-12-02T08:58:53.060Z,103.53
2017-12-02T09:01:20.498Z,91.82
2017-12-02T09:03:47.910Z,97.15
2017-12-02T09:06:15.323Z,91.95
2017-12-02T09:08:42.757Z,92.97
2017-12-02T09:11:10.175Z,86.65
2017-12-02T09:13:37.594Z,93.32
2017-12-02T09:16:05.020Z,86.05
2017-12-02T09:18:32.426Z,88.43
2017-12-02T09:20:59.865Z,95.78
2017-12-02T09:23:27.280Z,85.47
2017-12-02T09:25:54.703Z,90.82
2017-12-02T09:28:22.139Z,90.32
2017-12-02T09:30:49.541Z,86.45
2017-12-02T09:33:16.970Z,76.05
2017-12-02T09:35:44.402Z,79.55
2017-12-02T09:38:11.819Z,86.85
2017-12-02T09:40:39.313Z,87.72
2017-12-02T09:43:06.730Z,90.70
2017-12-02T09:45:34.172Z,84.80
2017-12-02T09:48:01.598Z,94.03
2017-12-02T09:50:29.020Z,87.50
2017-12-02T09:52:56.439Z,77.18
2017-12-02T09:55:23.867Z,86.35
2017-12-02T09:57:51.283Z,89.10
2017-12-02T10:00:18.707Z,84.10
2017-12-02T10:02:46.143Z,99.35
2017-12-02T10:05:13.571Z,96.72
2017-12-02T10:07:40.998Z,117.57
2017-12-02T10:10:08.419Z,88.75
2017-12-02T10:12:35.851Z,82.03
2017-12-02T10:15:03.267Z,99.18
2017-12-02T10:17:30.689Z,92.43
2017-12-02T10:19:58.118Z,80.60
2017-12-02T10:22:25.552Z,101.30
2017-12-02T10:24:52.971Z,87.82
2017-12-02T10:27:20.390Z,85.25
2017-12-02T10:29:47.815Z,84.90
2017-12-02T10:32:15.237Z,86.68
2017-12-02T10:34:42.682Z,96.93
2017-12-02T10:37:10.107Z,97.90
2017-12-02T10:39:37.522Z,83.40
2017-12-02T10:42:05.004Z,93.20
2017-12-02T10:44:32.406Z,96.80
2017-12-02T10:46:59.834Z,85.50
2017-12-02T10:49:27.269Z,96.97
2017-12-02T10:51:54.689Z,97.93
2017-12-02T10:54:22.114Z,114.68
2017-12-02T10:56:49.551Z,115.10
2017-12-02T10:59:16.982Z,101.87
2017-12-02T11:01:44.410Z,107.40
2017-12-02T11:04:11.823Z,105.45
2017-12-02T11:06:39.250Z,92.70
2017-12-02T11:09:06.682Z,97.97
2017-12-02T11:11:34.114Z,101.78
2017-12-02T11:14:01.539Z,103.93
2017-12-02T11:16:28.957Z,97.72
2017-12-02T11:18:56.386Z,100.87
2017-12-02T11:21:23.815Z,105.10
2017-12-02T11:23:51.247Z,99.93
2017-12-02T11:26:18.670Z,103.65
2017-12-02T11:28:46.095Z,105.93
2017-12-02T11:31:13.527Z,100.95
2017-12-02T11:33:40.958Z,98.68
2017-12-02T11:36:08.369Z,95.47
2017-12-02T11:38:35.787Z,94.75
2017-12-02T11:41:03.219Z,100.53
2017-12-02T11:43:30.640Z,91.90
2017-12-02T11:45:58.051Z,99.68
2017-12-02T11:48:25.478Z,113.40
2017-12-02T11:50:52.910Z,93.15
2017-12-02T11:53:20.331Z,98.95
2017-12-02T11:55:47.758Z,106.07
2017-12-02T11:58:15.171Z,97.85
2017-12-02T12:00:42.602Z,106.15
2017-12-02T12:03:10.019Z,92.95
2017-12-02T12:05:37.469Z,94.10
2017-12-02T12:08:04.909Z,104.25
2017-12-02T12:10:32.322Z,99.70
2017-12-02T12:12:59.746Z,91.25
2017-12-02T12:15:27.163Z,95.10
2017-12-02T12:17:54.620Z,99.60
2017-12-02T12:20:22.015Z,86.80
2017-12-02T12:22:49.423Z,93.03
2017-12-02T12:25:16.838Z,97.55
2017-12-02T12:27:44.267Z,91.32
2017-12-02T12:30:11.686Z,84.22
2017-12-02T12:32:39.114Z,85.72
2017-12-02T12:35:06.532Z,77.68
2017-12-02T12:37:33.946Z,92.53
2017-12-02T12:40:01.375Z,76.35
2017-12-02T12:42:28.788Z,95.82
2017-12-02T12:44:56.199Z,93.95
2017-12-02T12:47:23.626Z,80.78
2017-12-02T12:49:51.052Z,76.53
2017-12-02T12:52:18.462Z,68.57
2017-12-02T12:54:45.891Z,73.22
2017-12-02T12:57:13.314Z,82.93
2017-12-02T12:59:40.735Z,87.07
2017-12-02T13:02:08.182Z,67.43
2017-12-02T13:04:35.615Z,68.72
2017-12-02T13:07:03.892Z,66.82
2017-12-02T13:09:30.601Z,62.40
2017-12-02T13:11:58.023Z,74.57
2017-12-02T13:14:25.453Z,67.85
2017-12-02T13:16:52.862Z,59.38
2017-12-02T13:19:20.278Z,74.97
2017-12-02T13:21:47.715Z,81.03
2017-12-02T13:24:15.130Z,72.85
2017-12-02T13:26:42.546Z,69.53
2017-12-02T13:29:09.974Z,76.45
2017-12-02T13:31:37.575Z,77.57
2017-12-02T13:34:04.999Z,69.60
2017-12-02T13:36:32.411Z,76.95
2017-12-02T13:38:59.843Z,88.00
2017-12-02T13:41:27.259Z,78.95
2017-12-02T13:43:54.703Z,80.85
2017-12-02T13:46:22.110Z,81.60
2017-12-02T13:48:49.523Z,81.40
2017-12-02T13:51:16.959Z,84.78
2017-12-02T13:53:44.386Z,85.65
2017-12-02T13:56:11.812Z,84.72
2017-12-02T13:58:39.239Z,83.10
2017-12-02T14:01:06.655Z,97.25
2017-12-02T14:03:34.071Z,74.55
2017-12-02T14:06:01.494Z,78.72
2017-12-02T14:08:28.919Z,74.53
2017-12-02T14:10:56.322Z,75.30
2017-12-02T14:13:23.755Z,79.97
2017-12-02T14:15:51.166Z,84.28
2017-12-02T14:18:18.589Z,76.82
2017-12-02T14:20:46.007Z,88.85
2017-12-02T14:23:13.428Z,84.70
2017-12-02T14:25:40.854Z,89.18
2017-12-02T14:28:08.362Z,85.90
2017-12-02T14:30:35.791Z,79.53
2017-12-02T14:33:03.194Z,78.78
2017-12-02T14:35:30.617Z,75.72
2017-12-02T14:37:58.048Z,75.62
2017-12-02T14:40:25.462Z,60.92
2017-12-02T14:42:52.898Z,71.57
2017-12-02T14:45:20.314Z,64.87
2017-12-02T14:47:47.730Z,67.75
2017-12-02T14:50:15.166Z,70.50
2017-12-02T14:52:42.595Z,63.33
2017-12-02T14:55:10.014Z,65.30
2017-12-02T14:57:37.431Z,64.28
2017-12-02T15:00:04.859Z,69.15
2017-12-02T15:02:32.287Z,61.47
2017-12-02T15:04:59.723Z,53.20
2017-12-02T15:07:27.135Z,59.13
2017-12-02T15:09:54.550Z,64.40
2017-12-02T15:12:21.978Z,53.83
2017-12-02T15:14:49.396Z,73.43
2017-12-02T15:17:16.811Z,73.68
2017-12-02T15:19:44.249Z,84.30
2017-12-02T15:22:11.661Z,80.70
2017-12-02T15:24:39.071Z,79.55
2017-12-02T15:27:06.500Z,82.12
2017-12-02T15:29:33.918Z,77.78
2017-12-02T15:32:01.332Z,92.03
2017-12-02T15:34:28.758Z,85.62
2017-12-02T15:36:56.179Z,79.62
2017-12-02T15:39:23.601Z,76.03
2017-12-02T15:41:51.027Z,78.03
2017-12-02T15:44:18.459Z,79.47
2017-12-02T15:46:45.874Z,80.70
2017-12-02T15:49:13.303Z,77.22
2017-12-02T15:51:40.728Z,78.78
2017-12-02T15:54:08.143Z,83.20
2017-12-02T15:56:35.582Z,91.30
2017-12-02T15:59:02.998Z,84.62
2017-12-02T16:01:30.414Z,77.10
2017-12-02T16:03:57.846Z,82.35
2017-12-02T16:06:25.266Z,78.12
2017-12-02T16:08:52.678Z,79.37
2017-12-02T16:11:20.117Z,83.65
2017-12-02T16:13:47.526Z,81.65
2017-12-02T16:16:14.943Z,85.40
2017-12-02T16:18:42.379Z,96.95
2017-12-02T16:21:09.799Z,84.90
2017-12-02T16:23:37.214Z,85.80
2017-12-02T16:26:04.650Z,96.68
2017-12-02T16:28:32.068Z,78.28
2017-12-02T16:30:59.478Z,94.60
2017-12-02T16:33:26.917Z,82.75
2017-12-02T16:35:54.323Z,85.80
2017-12-02T16:38:21.742Z,80.93
2017-12-02T16:40:49.179Z,92.72
2017-12-02T16:43:16.608Z,89.68
2017-12-02T16:45:44.035Z,77.78
2017-12-02T16:48:11.469Z,82.30
2017-12-02T16:50:38.879Z,88.35
2017-12-02T16:53:06.299Z,82.28
2017-12-02T16:55:34.782Z,74.45
2017-12-02T16:58:02.211Z,69.68
2017-12-02T17:00:29.647Z,74.18
2017-12-02T17:02:57.067Z,78.12
2017-12-02T17:05:24.495Z,78.43
2017-12-02T17:07:51.930Z,81.30
2017-12-02T17:10:19.355Z,81.07
2017-12-02T17:12:46.777Z,73.50
2017-12-02T17:15:14.203Z,78.70
2017-12-02T17:17:41.618Z,82.03
2017-12-02T17:20:09.047Z,73.25
2017-12-02T17:22:36.474Z,73.10
2017-12-02T17:25:03.894Z,80.28
2017-12-02T17:27:31.343Z,76.15
2017-12-02T17:29:58.795Z,73.25
2017-12-02T17:32:26.453Z,80.12
2017-12-02T17:34:53.851Z,81.15
2017-12-02T17:37:21.269Z,80.00
2017-12-02T17:39:48.686Z,83.85
2017-12-02T17:42:16.114Z,85.00
2017-12-02T17:44:43.551Z,80.25
2017-12-02T17:47:10.975Z,77.30
2017-12-02T17:49:38.399Z,76.30
2017-12-02T17:52:05.870Z,81.82
2017-12-02T17:54:33.324Z,74.37
2017-12-02T17:57:00.735Z,75.43
2017-12-02T17:59:28.216Z,87.18
2017-12-02T18:01:55.635Z,74.15
2017-12-02T18:04:23.075Z,88.40
2017-12-02T18:06:50.482Z,77.10
2017-12-02T18:09:17.901Z,87.60
2017-12-02T18:11:45.335Z,74.78
2017-12-02T18:14:12.755Z,74.40
2017-12-02T18:16:40.343Z,79.95
2017-12-02T18:19:07.766Z,76.32
2017-12-02T18:21:35.207Z,73.00
2017-12-02T18:24:02.624Z,83.25
2017-12-02T18:26:30.058Z,75.10
2017-12-02T18:28:57.490Z,73.40
2017-12-02T18:31:24.903Z,74.22
2017-12-02T18:33:52.338Z,79.78
2017-12-02T18:36:19.776Z,90.25
2017-12-02T18:38:47.206Z,79.43
2017-12-02T18:41:14.642Z,89.72
2017-12-02T18:43:42.058Z,92.72
2017-12-02T18:46:09.527Z,81.32
2017-12-02T18:48:36.982Z,81.10
2017-12-02T18:51:04.408Z,88.07
2017-12-02T18:53:31.838Z,86.95
2017-12-02T18:55:59.295Z,88.15
2017-12-02T18:58:26.720Z,88.12
2017-12-02T19:00:54.142Z,91.72
2017-12-02T19:03:21.583Z,82.07
2017-12-02T19:05:49.007Z,93.10
2017-12-02T19:08:16.455Z,94.87
2017-12-02T19:10:43.883Z,87.93
2017-12-02T19:13:11.302Z,90.78
2017-12-02T19:15:38.726Z,98.70
2017-12-02T19:18:06.142Z,109.75
2017-12-02T19:20:33.583Z,95.62
2017-12-02T19:23:01.003Z,96.50
2017-12-02T19:25:28.419Z,97.43
2017-12-02T19:27:55.854Z,124.32
2017-12-02T19:30:23.265Z,89.50
2017-12-02T19:32:50.715Z,100.40
2017-12-02T19:35:18.135Z,108.07
2017-12-02T19:37:45.563Z,94.28
2017-12-02T19:40:13.011Z,105.25
2017-12-02T19:42:40.435Z,103.45
2017-12-02T19:45:07.867Z,104.10
2017-12-02T19:47:35.287Z,95.95
2017-12-02T19:50:02.707Z,92.62
2017-12-02T19:52:30.130Z,112.93
2017-12-02T19:54:57.541Z,95.07
2017-12-02T19:57:24.972Z,102.10
2017-12-02T19:59:52.391Z,86.68
2017-12-02T20:02:19.812Z,107.53
2017-12-02T20:04:47.248Z,92.05
2017-12-02T20:07:14.672Z,88.18
2017-12-02T20:09:42.111Z,101.72
2017-12-02T20:12:09.523Z,91.78
2017-12-02T20:14:36.950Z,111.05
2017-12-02T20:17:04.387Z,94.45
2017-12-02T20:19:31.804Z,99.62
2017-12-02T20:21:59.214Z,85.45
2017-12-02T20:24:26.658Z,102.50
2017-12-02T20:26:54.075Z,90.20
2017-12-02T20:29:21.502Z,93.53
2017-12-02T20:31:48.926Z,86.37
2017-12-02T20:34:16.347Z,86.93
2017-12-02T20:36:43.762Z,91.50
2017-12-02T20:39:11.192Z,79.37
2017-12-02T20:41:38.613Z,90.22
2017-12-02T20:44:06.005Z,85.03
2017-12-02T20:46:33.452Z,80.35
2017-12-02T20:49:00.870Z,80.07
2017-12-02T20:51:28.298Z,88.90
2017-12-02T20:53:55.761Z,92.45
2017-12-02T20:56:23.166Z,95.03
2017-12-02T20:58:50.599Z,95.55
2017-12-02T21:01:18.014Z,94.93
2017-12-02T21:03:45.435Z,94.35
2017-12-02T21:06:12.876Z,96.80
2017-12-02T21:08:40.291Z,85.90
2017-12-02T21:11:07.707Z,97.43
2017-12-02T21:13:35.134Z,95.87
2017-12-02T21:16:02.550Z,109.68
2017-12-02T21:18:29.977Z,104.90
2017-12-02T21:20:57.402Z,90.05
2017-12-02T21:23:24.809Z,99.10
2017-12-02T21:25:52.247Z,103.78
2017-12-02T21:28:19.667Z,103.62
2017-12-02T21:30:47.095Z,106.85
2017-12-02T21:33:14.479Z,87.93
2017-12-02T21:35:41.943Z,92.07
2017-12-02T21:38:09.358Z,98.00
2017-12-02T21:40:36.803Z,101.60
2017-12-02T21:43:04.230Z,106.87
2017-12-02T21:45:31.651Z,99.40
2017-12-02T21:47:59.083Z,89.03
2017-12-02T21:50:26.502Z,94.97
2017-12-02T21:52:53.924Z,98.37
2017-12-02T21:55:21.363Z,103.43
2017-12-02T21:57:48.777Z,108.00
2017-12-02T22:00:16.199Z,101.35
2017-12-02T22:02:43.636Z,97.15
2017-12-02T22:05:11.423Z,105.05
2017-12-02T22:07:38.863Z,104.97
2017-12-02T22:10:06.290Z,109.47
2017-12-02T22:12:33.723Z,99.62
2017-12-02T22:15:01.184Z,101.95
2017-12-02T22:17:28.681Z,90.00
2017-12-02T22:19:56.200Z,101.55
2017-12-02T22:22:23.621Z,85.12
2017-12-02T22:24:51.035Z,83.62
2017-12-02T22:27:18.463Z,91.75
2017-12-02T22:29:45.888Z,94.30
2017-12-02T22:32:13.321Z,91.18
2017-12-02T22:34:40.738Z,77.22
2017-12-02T22:37:08.179Z,84.10
2017-12-02T22:39:35.596Z,88.45
2017-12-02T22:42:03.011Z,97.43
2017-12-02T22:44:30.454Z,80.65
2017-12-02T22:46:57.886Z,81.43
2017-12-02T22:49:25.306Z,87.65
2017-12-02T22:51:52.862Z,102.78
2017-12-02T22:54:20.282Z,80.97
2017-12-02T22:56:47.718Z,72.53
2017-12-02T22:59:15.468Z,81.90
2017-12-02T23:01:43.086Z,84.68
2017-12-02T23:04:10.735Z,92.30
2017-12-02T23:06:38.249Z,85.62
2017-12-02T23:09:05.687Z,83.35
2017-12-02T23:11:33.107Z,95.10
2017-12-02T23:14:00.525Z,73.20
2017-12-02T23:16:27.943Z,76.90
2017-12-02T23:18:55.368Z,88.70
2017-12-02T23:21:22.805Z,63.95
2017-12-02T23:23:50.223Z,61.20
2017-12-02T23:26:17.650Z,70.47
2017-12-02T23:28:45.083Z,69.95
2017-12-02T23:31:12.555Z,66.43
2017-12-02T23:33:39.943Z,58.83
2017-12-02T23:36:07.371Z,62.50
2017-12-02T23:38:34.810Z,59.50
2017-12-02T23:41:02.233Z,55.78
2017-12-02T23:43:29.649Z,61.55
2017-12-02T23:45:57.101Z,68.28
2017-12-02T23:48:24.506Z,59.92
2017-12-02T23:50:52.174Z,60.08
2017-12-02T23:53:19.627Z,62.00
2017-12-02T23:55:47.053Z,59.65
2017-12-02T23:58:14.477Z,68.50
